Aviation Digital Data Service (ADDS)

Output produced by METARs form (1146 UTC 01 May 2016)
found at http://www.aviationweather.gov/adds/metars/
 
KTHV 011136Z AUTO 11006KT 4SM -RA BR OVC009 08/07 A3011 RMK AO2 CIG 007V012 P0004 T00830072
KTHV 011053Z AUTO 11006KT 4SM -RA BR OVC010 08/07 A3012 RMK AO2 SLP201 P0007 T00830072
KTHV 010953Z AUTO 11005KT 6SM -RA BR OVC011 08/07 A3011 RMK AO2 SLP200 P0006 T00830072
KTHV 010932Z AUTO 12007KT 4SM -RA BR BKN011 BKN029 OVC038 08/07 A3011 RMK AO2 P0004 T00830072
KTHV 010853Z AUTO 13007KT 6SM -RA BR FEW022 BKN035 OVC044 08/07 A3013 RMK AO2 SLP204 P0006 60009 T00830072 56006
KTHV 010824Z AUTO 14005KT 4SM -RA BR FEW018 SCT025 OVC032 08/07 A3013 RMK AO2 P0004 T00830072
KTHV 010753Z AUTO 14005KT 6SM -RA BR OVC020 09/07 A3013 RMK AO2 RAE02B30 SLP204 P0002 T00890072
KTHV 010653Z AUTO 15009KT 8SM -RA SCT017 OVC025 09/07 A3013 RMK AO2 RAB00 SLP205 P0001 T00940072
KTHV 010635Z AUTO 15009KT 7SM -RA BKN017 BKN030 OVC036 10/08 A3013 RMK AO2 RAB00 P0001 T01000078
KTHV 010553Z AUTO VRB06KT 10SM SCT014 OVC035 11/08 A3014 RMK AO2 RAE32 SLP210 P0000 60000 T01060083 10128 20106 58015
KTHV 010453Z AUTO 14009KT 10SM -RA OVC014 11/09 A3017 RMK AO2 RAB49 SLP219 P0000 T01110089 401560072
KTHV 010444Z AUTO 14006KT 10SM OVC014 11/09 A3017 RMK AO2 T01110089
KTHV 010403Z AUTO 15005KT 10SM BKN022 OVC039 11/09 A3018 RMK AO2 T01110089
KTHV 010353Z AUTO 15005KT 10SM SCT022 OVC039 11/09 A3017 RMK AO2 RAB0254E18 SLP221 P0000 T01110089
KTHV 010332Z AUTO 15004KT 10SM BKN023 OVC042 12/08 A3018 RMK AO2 RAB0254E18 P0000 T01170083
KTHV 010253Z AUTO VRB04KT 10SM OVC044 12/08 A3019 RMK AO2 SLP226 60000 T01170083 50003
KTHV 010153Z AUTO 16003KT 10SM OVC040 12/08 A3020 RMK AO2 RAB16E42 SLP228 P0000 T01220078
KTHV 010053Z AUTO VRB03KT 10SM OVC034 13/08 A3019 RMK AO2 SLP226 T01280078
KTHV 302353Z AUTO 14003KT 10SM OVC032 13/08 A3018 RMK AO2 SLP223 T01280078 10156 20128 50002
KTHV 302253Z AUTO 00000KT 10SM OVC034 13/08 A3018 RMK AO2 SLP224 T01330078
KTHV 302153Z AUTO 15006KT 10SM OVC032 14/08 A3018 RMK AO2 SLP223 T01390078
KTHV 302053Z AUTO VRB04KT 10SM OVC034 14/07 A3017 RMK AO2 SLP220 T01440072 56008
KTHV 301953Z AUTO 13003KT 10SM OVC035 14/07 A3018 RMK AO2 SLP222 T01390072
KTHV 301853Z AUTO 15003KT 10SM FEW028 OVC041 14/08 A3018 RMK AO2 SLP223 T01390078
KTHV 301753Z AUTO 10003KT 10SM SCT025 OVC043 14/08 A3019 RMK AO2 SLP227 T01390083 10139 20072 56003
KTHV 301740Z AUTO 13004KT 10SM BKN025 OVC043 13/08 A3019 RMK AO2 T01330078
KTHV 301722Z AUTO 09005KT 10SM SCT025 OVC044 13/08 A3019 RMK AO2 T01330078
KTHV 301653Z AUTO 10005KT 10SM OVC022 12/08 A3019 RMK AO2 SLP228 T01220078
KTHV 301622Z AUTO 14003KT 10SM BKN019 OVC045 12/07 A3020 RMK AO2 T01170072
KTHV 301612Z AUTO 12005KT 10SM SCT017 OVC045 12/07 A3020 RMK AO2 T01170072
KTHV 301553Z AUTO 10006KT 10SM BKN016 OVC045 11/07 A3020 RMK AO2 SLP230 T01110072
KTHV 301528Z AUTO 09004KT 7SM BKN015 OVC045 11/07 A3019 RMK AO2 T01060072
KTHV 301453Z AUTO 06003KT 8SM OVC012 09/07 A3020 RMK AO2 SLP231 T00940067 58001
KTHV 301353Z AUTO 11003KT 9SM OVC010 08/06 A3021 RMK AO2 SLP234 T00830061
KTHV 301302Z AUTO 07005KT 10SM OVC010 08/06 A3021 RMK AO2 T00830061
KTHV 301253Z AUTO 06007KT 10SM OVC009 08/06 A3021 RMK AO2 SLP232 T00780056
KTHV 301237Z AUTO 08006KT 10SM BKN009 OVC020 08/07 A3020 RMK AO2 CIG 005V011 T00830067
KTHV 301153Z AUTO 08003KT 5SM BR OVC006 07/06 A3021 RMK AO2 CIG 005V009 SLP232 60001 70011 T00720061 10089 20072 53019
KTHV 301129Z AUTO 06006KT 5SM BR OVC006 07/06 A3020 RMK AO2 T00720061
KTHV 301053Z AUTO 06004KT 3SM BR OVC005 07/07 A3018 RMK AO2 SLP223 P0001 T00720067
KTHV 301038Z AUTO 06005KT 3SM BR OVC005 07/07 A3018 RMK AO2 P0001 T00720067
KTHV 301017Z AUTO 07005KT 4SM BR OVC004 07/06 A3017 RMK AO2 P0001 T00720061
KTHV 301004Z AUTO 07005KT 3SM BR OVC005 07/06 A3017 RMK AO2 CIG 003V007 T00720061
KTHV 300953Z AUTO 05006KT 3SM BR OVC006 07/07 A3017 RMK AO2 RAB0858E32 CIG 004V007 SLP219 P0000 T00720067
KTHV 300940Z AUTO 06005KT 3SM BR OVC006 07/07 A3017 RMK AO2 RAB0858E32 CIG 004V009 P0000 T00720067
KTHV 300926Z AUTO 06007KT 2 1/2SM -RA BR BKN006 OVC010 07/07 A3016 RMK AO2 RAB0858 CIG 004V009 P0000 T00720067
KTHV 300918Z AUTO 08005KT 2 1/2SM -RA BR OVC008 07/07 A3016 RMK AO2 RAB0858 CIG 004V011 P0000 T00720067
KTHV 300858Z AUTO 07005KT 3SM -RA BR OVC006 07/07 A3015 RMK AO2 RAB58 CIG 003V010 P0000 T00720067
KTHV 300853Z AUTO 07006KT 2 1/2SM BR BKN004 OVC009 07/07 A3015 RMK AO2 SLP213 T00720067 51010
KTHV 300849Z AUTO 07003KT 2 1/2SM BR BKN004 OVC008 07/07 A3015 RMK AO2
KTHV 300842Z AUTO 07005KT 2SM BR OVC004 07/07 A3015 RMK AO2 CIG 003V009 T00720067
KTHV 300831Z AUTO 07006KT 1 3/4SM BR OVC004 07/07 A3014 RMK AO2 CIG 003V007 T00720067
KTHV 300821Z AUTO 07007KT 2SM BR OVC004 07/07 A3014 RMK AO2 CIG 003V007 T00720067
KTHV 300753Z AUTO 06007KT 1 1/2SM BR OVC003 08/07 A3013 RMK AO2 SLP207 T00780072
KTHV 300716Z AUTO 06006KT 1 1/2SM BR OVC003 08/07 A3013 RMK AO2 CIG 002V006 T00780072
KTHV 300709Z AUTO 06005KT 1 3/4SM BR OVC005 08/08 A3013 RMK AO2 CIG 002V007 T00830078
KTHV 300700Z AUTO 06004KT 2SM BR OVC005 08/08 A3012 RMK AO2 CIG 003V008 T00830078
KTHV 300653Z AUTO 07006KT 2 1/2SM BR OVC007 08/08 A3012 RMK AO2 SLP203 T00830078
KTHV 300641Z AUTO 08006KT 2 1/2SM BR OVC006 08/08 A3012 RMK AO2 T00830078
KTHV 300628Z AUTO 07006KT 2 1/2SM BR OVC005 08/08 A3012 RMK AO2 CIG 004V007 T00830078
KTHV 300553Z AUTO 07004KT 3SM BR OVC005 09/08 A3012 RMK AO2 RAE13 SLP204 P0001 60006 T00890078 10100 20083 50000
KTHV 300544Z AUTO 06005KT 3SM BR BKN005 OVC009 09/08 A3013 RMK AO2 RAE13 CIG 003V007 P0001 T00890078
KTHV 300534Z AUTO 06005KT 2 1/2SM BR BKN005 OVC009 09/08 A3012 RMK AO2 RAE13 CIG 003V007 P0001 T00890078
KTHV 300520Z AUTO 08004KT 2SM BR OVC005 09/08 A3012 RMK AO2 RAE13 CIG 003V009 P0001 T00890083
KTHV 300500Z AUTO 06004KT 2SM -RA BR OVC004 09/08 A3013 RMK AO2 P0001 T00890078
KTHV 300453Z AUTO 06005KT 2SM -RA BR OVC005 09/08 A3013 RMK AO2 RAE19B42 SLP208 P0001 T00890078 401000067
KTHV 300438Z AUTO 04004KT 2 1/2SM BR OVC005 09/08 A3014 RMK AO2 RAE19 CIG 003V010 P0001 T00890083
KTHV 300432Z AUTO 03005KT 2 1/2SM BR OVC006 09/08 A3014 RMK AO2 RAE19 CIG 003V010 P0001 T00890083
KTHV 300422Z AUTO 06004KT 2 1/2SM BR OVC005 09/08 A3013 RMK AO2 RAE19 CIG 004V010 P0001 T00890083
KTHV 300407Z AUTO 10009KT 2SM -RA BR OVC005 09/08 A3012 RMK AO2 P0001 T00890078
KTHV 300353Z AUTO 07007KT 1 3/4SM -RA BR OVC004 09/08 A3012 RMK AO2 RAB32 SLP204 P0000 T00890083
KTHV 300327Z AUTO 05005KT 1 3/4SM BR BKN003 OVC008 09/08 A3012 RMK AO2 CIG 003V006 T00940083
KTHV 300320Z AUTO 04007KT 2SM BR BKN005 OVC010 09/09 A3012 RMK AO2 CIG 003V007 T00940089
KTHV 300314Z AUTO 05004KT 2 1/2SM BR OVC008 09/09 A3011 RMK AO2 CIG 004V011 T00940089
KTHV 300253Z AUTO 00000KT 2 1/2SM BR SCT005 OVC011 09/09 A3010 RMK AO2 SLP198 60004 T00940089 51005
KTHV 300251Z AUTO 00000KT 2 1/2SM BR SCT005 OVC011 09/09 A3010 RMK AO2
KTHV 300238Z AUTO 00000KT 2 1/2SM BR BKN005 OVC010 09/09 A3010 RMK AO2 CIG 003V008 T00940089
KTHV 300222Z AUTO 00000KT 2 1/2SM BR SCT005 OVC010 10/09 A3010 RMK AO2 T01000089
KTHV 300153Z AUTO 00000KT 5SM BR OVC007 10/09 A3011 RMK AO2 RAE02 CIG 004V010 SLP198 P0000 T01000089
KTHV 300053Z AUTO 00000KT 6SM -RA BR OVC009 10/09 A3009 RMK AO2 RAB01 SLP192 P0004 T01000089
KTHV 300015Z AUTO 15004KT 3SM -RA BR OVC010 09/08 A3006 RMK AO2 RAB01 CIG 008V013 P0003 T00940083
KTHV 292353Z AUTO 13005KT 6SM BR OVC009 10/08 A3005 RMK AO2 RAB27E44 SLP181 P0000 60000 T01000083 10100 20094 52008